createdAt,value
2022-09-23T00:02:18.474Z,9.52
2022-09-23T00:04:46.761Z,9.85
2022-09-23T00:07:14.190Z,9.23
2022-09-23T00:09:42.875Z,10.30
2022-09-23T00:12:10.375Z,9.18
2022-09-23T00:14:38.254Z,10.98
2022-09-23T00:17:05.774Z,12.55
2022-09-23T00:19:33.206Z,9.95
2022-09-23T00:22:00.558Z,10.43
2022-09-23T00:24:32.229Z,8.07
2022-09-23T00:27:01.154Z,9.65
2022-09-23T00:29:28.502Z,7.75
2022-09-23T00:31:55.839Z,9.05
2022-09-23T00:34:23.252Z,7.72
2022-09-23T00:36:50.611Z,8.13
2022-09-23T00:39:18.040Z,10.00
2022-09-23T00:41:45.369Z,12.48
2022-09-23T00:44:31.191Z,10.20
2022-09-23T00:46:59.945Z,8.85
2022-09-23T00:49:29.375Z,9.40
2022-09-23T00:51:59.778Z,8.50
2022-09-23T00:54:27.972Z,9.38
2022-09-23T00:56:56.037Z,10.00
2022-09-23T00:59:24.395Z,10.18
2022-09-23T01:01:54.595Z,9.30
2022-09-23T01:04:23.621Z,9.50
2022-09-23T01:06:51.235Z,11.10
2022-09-23T01:09:18.884Z,11.93
2022-09-23T01:11:50.318Z,10.57
2022-09-23T01:14:26.197Z,9.13
2022-09-23T01:16:56.580Z,10.73
2022-09-23T01:19:36.480Z,10.32
2022-09-23T01:22:08.324Z,9.82
2022-09-23T01:24:50.301Z,9.27
2022-09-23T01:27:23.865Z,11.88
2022-09-23T01:30:01.555Z,9.35
2022-09-23T01:32:37.142Z,10.85
2022-09-23T01:35:08.509Z,7.53
2022-09-23T01:40:06.847Z,8.50
2022-09-23T01:45:05.919Z,11.63
2022-09-23T01:47:37.327Z,9.98
2022-09-23T01:50:26.624Z,10.15
2022-09-23T01:52:55.402Z,6.55
2022-09-23T01:55:25.738Z,8.93
2022-09-23T01:57:56.441Z,6.70
2022-09-23T02:00:24.846Z,10.40
2022-09-23T02:02:55.653Z,7.90
2022-09-23T02:05:26.164Z,8.85
2022-09-23T02:07:59.306Z,8.23
2022-09-23T02:10:29.588Z,8.13
2022-09-23T02:12:59.308Z,9.38
2022-09-23T02:15:29.532Z,8.88
2022-09-23T02:18:01.796Z,8.65
2022-09-23T02:20:30.622Z,10.38
2022-09-23T02:23:01.711Z,10.00
2022-09-23T02:25:33.964Z,11.60
2022-09-23T02:28:08.025Z,8.07
2022-09-23T02:30:39.827Z,8.70
2022-09-23T02:33:09.346Z,7.72
2022-09-23T02:35:40.272Z,7.88
2022-09-23T02:38:11.948Z,9.45
2022-09-23T02:40:42.564Z,8.02
2022-09-23T02:43:11.667Z,9.10
2022-09-23T02:45:39.197Z,9.02
2022-09-23T02:48:08.937Z,12.38
2022-09-23T02:50:36.351Z,9.10
2022-09-23T02:53:04.266Z,9.90
2022-09-23T02:55:32.319Z,8.70
2022-09-23T02:58:01.398Z,9.00
2022-09-23T03:00:31.435Z,8.05
2022-09-23T03:03:06.359Z,10.18
2022-09-23T03:05:38.051Z,8.75
2022-09-23T03:08:11.154Z,9.32
2022-09-23T03:10:43.795Z,7.03
2022-09-23T03:13:16.519Z,8.35
2022-09-23T03:15:47.742Z,9.23
2022-09-23T03:18:16.808Z,6.15
2022-09-23T03:20:49.464Z,8.65
2022-09-23T03:23:18.967Z,9.95
2022-09-23T03:25:48.430Z,9.63
2022-09-23T03:28:17.315Z,7.82
2022-09-23T03:30:44.990Z,7.78
2022-09-23T03:33:14.523Z,9.13
2022-09-23T03:35:57.264Z,7.38
2022-09-23T03:38:27.223Z,8.40
2022-09-23T03:40:55.330Z,6.50
2022-09-23T03:43:22.835Z,7.10
2022-09-23T03:45:54.544Z,7.57
2022-09-23T03:48:22.231Z,8.25
2022-09-23T03:50:49.626Z,7.88
2022-09-23T03:53:20.878Z,9.07
2022-09-23T03:58:17.780Z,6.22
2022-09-23T04:00:46.727Z,6.15
2022-09-23T04:03:14.195Z,7.80
2022-09-23T04:05:41.548Z,7.60
2022-09-23T04:08:08.886Z,8.13
2022-09-23T04:10:36.224Z,7.70
2022-09-23T04:13:03.603Z,7.20
2022-09-23T04:15:32.351Z,10.02
2022-09-23T04:17:59.715Z,8.30
2022-09-23T04:20:28.904Z,8.52
2022-09-23T04:22:56.948Z,10.35
2022-09-23T04:25:24.303Z,6.78
2022-09-23T04:27:51.783Z,6.70
2022-09-23T04:30:19.570Z,7.85
2022-09-23T04:32:48.286Z,8.57
2022-09-23T04:35:15.626Z,8.23
2022-09-23T04:37:43.019Z,7.97
2022-09-23T04:40:10.741Z,10.52
2022-09-23T04:42:38.083Z,9.25
2022-09-23T04:45:05.732Z,8.00
2022-09-23T04:47:33.214Z,9.32
2022-09-23T04:50:01.907Z,9.45
2022-09-23T04:52:31.082Z,8.15
2022-09-23T04:54:58.466Z,7.55
2022-09-23T04:57:26.115Z,8.43
2022-09-23T04:59:54.846Z,6.80
2022-09-23T05:02:22.732Z,9.60
2022-09-23T05:04:50.496Z,5.85
2022-09-23T05:07:19.246Z,7.72
2022-09-23T05:09:46.720Z,8.65
2022-09-23T05:12:14.150Z,8.70
2022-09-23T05:14:41.487Z,8.98
2022-09-23T05:17:08.823Z,10.65
2022-09-23T05:19:36.211Z,11.48
2022-09-23T05:22:05.538Z,7.78
2022-09-23T05:24:34.274Z,8.52
2022-09-23T05:27:02.022Z,7.97
2022-09-23T05:29:29.367Z,6.93
2022-09-23T05:31:56.757Z,10.40
2022-09-23T05:34:24.640Z,9.32
2022-09-23T05:36:51.980Z,10.70
2022-09-23T05:39:19.438Z,6.90
2022-09-23T05:41:48.948Z,9.25
2022-09-23T05:44:16.323Z,8.45
2022-09-23T05:46:43.710Z,9.13
2022-09-23T05:49:11.961Z,11.70
2022-09-23T05:51:39.351Z,7.35
2022-09-23T05:54:07.020Z,7.65
2022-09-23T05:56:34.894Z,7.07
2022-09-23T05:59:04.192Z,12.75
2022-09-23T06:01:33.718Z,9.27
2022-09-23T06:04:02.616Z,8.40
2022-09-23T06:06:30.849Z,6.82
2022-09-23T06:08:59.238Z,6.13
2022-09-23T06:11:27.106Z,9.18
2022-09-23T06:13:55.881Z,6.32
2022-09-23T06:16:24.661Z,7.03
2022-09-23T06:18:52.151Z,6.88
2022-09-23T06:21:19.531Z,7.10
2022-09-23T06:23:47.192Z,8.02
2022-09-23T06:26:15.359Z,7.78
2022-09-23T06:28:43.872Z,12.68
2022-09-23T06:31:13.696Z,6.75
2022-09-23T06:33:43.385Z,6.03
2022-09-23T06:36:11.233Z,7.50
2022-09-23T06:38:39.818Z,9.95
2022-09-23T06:41:07.494Z,7.88
2022-09-23T06:43:34.943Z,7.88
2022-09-23T06:46:04.727Z,8.23
2022-09-23T06:48:35.099Z,10.55
2022-09-23T06:51:04.937Z,12.25
2022-09-23T06:53:32.861Z,8.07
2022-09-23T06:56:01.302Z,7.60
2022-09-23T06:58:29.148Z,7.75
2022-09-23T07:01:01.632Z,8.98
2022-09-23T07:03:29.070Z,8.73
2022-09-23T07:05:56.625Z,8.02
2022-09-23T07:08:26.426Z,9.77
2022-09-23T07:10:53.896Z,9.02
2022-09-23T07:13:21.614Z,9.32
2022-09-23T07:15:52.235Z,8.38
2022-09-23T07:18:19.851Z,8.82
2022-09-23T07:20:48.249Z,8.38
2022-09-23T07:23:17.503Z,9.23
2022-09-23T07:25:46.804Z,7.90
2022-09-23T07:28:14.308Z,7.70
2022-09-23T07:30:55.765Z,6.97
2022-09-23T07:33:31.606Z,7.55
2022-09-23T07:35:59.970Z,10.77
2022-09-23T07:38:30.358Z,6.35
2022-09-23T07:41:03.343Z,8.45
2022-09-23T07:43:31.844Z,8.60
2022-09-23T07:45:59.720Z,8.07
2022-09-23T07:48:31.947Z,6.95
2022-09-23T07:51:01.826Z,10.48
2022-09-23T07:53:30.234Z,9.05
2022-09-23T07:55:57.953Z,6.68
2022-09-23T07:58:26.855Z,6.97
2022-09-23T08:00:54.219Z,8.95
2022-09-23T08:03:21.684Z,7.45
2022-09-23T08:05:49.104Z,8.45
2022-09-23T08:08:17.243Z,8.32
2022-09-23T08:10:45.117Z,9.88
2022-09-23T08:13:12.547Z,8.07
2022-09-23T08:15:44.138Z,7.80
2022-09-23T08:18:11.731Z,6.47
2022-09-23T08:20:48.304Z,9.43
2022-09-23T08:23:16.707Z,6.47
2022-09-23T08:25:46.947Z,6.57
2022-09-23T08:28:16.027Z,7.60
2022-09-23T08:30:45.583Z,9.02
2022-09-23T08:33:13.512Z,7.05
2022-09-23T08:35:41.258Z,5.90
2022-09-23T08:38:08.743Z,5.28
2022-09-23T08:40:37.313Z,6.60
2022-09-23T08:43:07.095Z,5.47
2022-09-23T08:45:35.581Z,5.70
2022-09-23T08:48:12.169Z,5.53
2022-09-23T08:50:42.309Z,5.03
2022-09-23T08:53:14.278Z,5.18
2022-09-23T08:55:43.456Z,5.45
2022-09-23T08:58:25.233Z,4.68
2022-09-23T09:00:57.146Z,3.80
2022-09-23T09:03:35.107Z,4.75
2022-09-23T09:06:02.510Z,4.25
2022-09-23T09:08:32.523Z,4.30
2022-09-23T09:11:00.035Z,3.22
2022-09-23T09:13:31.538Z,4.70
2022-09-23T09:16:09.718Z,5.55
2022-09-23T09:18:43.986Z,5.50
2022-09-23T09:21:12.902Z,4.45
2022-09-23T09:23:43.841Z,5.68
2022-09-23T09:26:12.778Z,3.28
2022-09-23T09:28:42.458Z,4.93
2022-09-23T09:31:21.242Z,3.97
2022-09-23T09:33:57.837Z,4.18
2022-09-23T09:36:30.853Z,3.28
2022-09-23T09:38:59.506Z,6.15
2022-09-23T09:41:31.368Z,4.55
2022-09-23T09:44:00.699Z,4.00
2022-09-23T09:46:37.253Z,4.00
2022-09-23T09:49:10.250Z,3.30
2022-09-23T09:51:39.569Z,4.00
2022-09-23T09:54:17.363Z,4.53
2022-09-23T09:56:45.358Z,3.47
2022-09-23T09:59:16.512Z,3.47
2022-09-23T10:01:44.148Z,4.10
2022-09-23T10:04:21.777Z,3.55
2022-09-23T10:07:05.752Z,3.70
2022-09-23T10:09:33.903Z,3.85
2022-09-23T10:12:15.468Z,6.45
2022-09-23T10:14:42.872Z,5.57
2022-09-23T10:17:15.879Z,4.22
2022-09-23T10:19:48.175Z,4.70
2022-09-23T10:22:19.199Z,3.35
2022-09-23T10:24:49.264Z,3.00
2022-09-23T10:27:17.117Z,2.80
2022-09-23T10:29:50.035Z,3.00
2022-09-23T10:32:25.495Z,3.13
2022-09-23T10:34:54.870Z,12.02
2022-09-23T10:37:25.337Z,2.70
2022-09-23T10:40:10.188Z,2.97
2022-09-23T10:43:05.496Z,5.22
2022-09-23T10:45:51.724Z,2.78
2022-09-23T10:48:24.659Z,2.60
2022-09-23T10:50:54.075Z,4.38
2022-09-23T10:53:26.596Z,3.33
2022-09-23T10:55:59.100Z,3.80
2022-09-23T10:58:42.462Z,3.00
2022-09-23T11:01:16.283Z,2.92
2022-09-23T11:04:04.981Z,4.80
2022-09-23T11:06:38.498Z,2.22
2022-09-23T11:09:10.447Z,2.42
2022-09-23T11:11:43.183Z,2.67
2022-09-23T11:14:20.598Z,3.63
2022-09-23T11:16:53.129Z,2.70
2022-09-23T11:19:25.406Z,2.90
2022-09-23T11:22:02.227Z,2.50
2022-09-23T11:25:02.838Z,3.85
2022-09-23T11:27:34.810Z,4.57
2022-09-23T11:30:04.287Z,2.78
2022-09-23T11:32:55.613Z,2.85
2022-09-23T11:35:25.171Z,2.88
2022-09-23T11:37:56.132Z,2.95
2022-09-23T11:40:27.741Z,2.17
2022-09-23T11:42:58.034Z,3.08
2022-09-23T11:45:26.346Z,2.75
2022-09-23T11:47:58.288Z,3.05
2022-09-23T11:50:29.478Z,2.60
2022-09-23T11:53:01.494Z,2.78
2022-09-23T11:55:32.253Z,4.10
2022-09-23T11:58:02.161Z,2.83
2022-09-23T12:00:32.466Z,3.33
2022-09-23T12:05:36.121Z,2.40
2022-09-23T12:10:39.416Z,8.15
2022-09-23T12:13:08.947Z,2.80
2022-09-23T12:15:44.407Z,2.45
2022-09-23T12:18:23.000Z,2.90
2022-09-23T12:20:58.115Z,4.10
2022-09-23T12:23:37.104Z,2.47
2022-09-23T12:26:06.711Z,3.58
2022-09-23T12:28:37.210Z,3.80
2022-09-23T12:31:06.491Z,3.65
2022-09-23T12:33:34.306Z,2.03
2022-09-23T12:36:04.398Z,2.55
2022-09-23T12:38:34.053Z,3.17
2022-09-23T12:41:01.956Z,1.75
2022-09-23T12:43:32.960Z,2.97
2022-09-23T12:46:16.082Z,3.42
2022-09-23T12:48:48.038Z,2.75
2022-09-23T12:51:16.855Z,2.70
2022-09-23T12:53:59.664Z,3.65
2022-09-23T12:56:28.758Z,3.25
2022-09-23T12:59:21.690Z,2.72
2022-09-23T13:01:49.109Z,2.53
2022-09-23T13:04:47.617Z,2.15
2022-09-23T13:07:16.431Z,2.80
2022-09-23T13:09:45.972Z,2.78
2022-09-23T13:12:17.321Z,3.05
2022-09-23T13:14:47.330Z,3.10
2022-09-23T13:17:24.401Z,2.53
2022-09-23T13:19:59.204Z,2.30
2022-09-23T13:22:45.355Z,2.45
2022-09-23T13:25:19.051Z,2.15
2022-09-23T13:27:50.366Z,3.42
2022-09-23T13:30:25.708Z,2.60
2022-09-23T13:33:02.059Z,3.25
2022-09-23T13:35:32.156Z,4.30
2022-09-23T13:37:59.791Z,3.60
2022-09-23T13:40:28.338Z,2.45
2022-09-23T13:42:58.439Z,2.55
2022-09-23T13:45:28.529Z,2.22
2022-09-23T13:48:00.271Z,4.32
2022-09-23T13:50:34.146Z,2.80
2022-09-23T13:53:04.040Z,2.92
2022-09-23T13:55:32.724Z,2.95
2022-09-23T13:58:01.651Z,2.10
2022-09-23T14:00:35.198Z,4.95
2022-09-23T14:03:02.665Z,2.25
2022-09-23T14:05:33.524Z,2.40
2022-09-23T14:08:01.026Z,3.08
2022-09-23T14:10:28.859Z,2.85
2022-09-23T14:12:57.301Z,3.90
2022-09-23T14:15:24.765Z,2.25
2022-09-23T14:17:54.901Z,2.53
2022-09-23T14:20:23.168Z,2.45
2022-09-23T14:23:03.895Z,3.13
2022-09-23T14:25:31.323Z,4.13
2022-09-23T14:28:00.566Z,2.10
2022-09-23T14:30:28.504Z,2.95
2022-09-23T14:32:57.525Z,4.10
2022-09-23T14:35:26.930Z,3.00
2022-09-23T14:38:14.287Z,2.20
2022-09-23T14:40:51.224Z,2.65
2022-09-23T14:43:23.059Z,2.40
2022-09-23T14:45:52.569Z,3.05
2022-09-23T14:48:23.921Z,3.83
2022-09-23T14:50:52.178Z,3.70
2022-09-23T14:53:36.895Z,3.65
2022-09-23T14:56:17.504Z,3.13
2022-09-23T14:58:51.735Z,4.90
2022-09-23T15:01:26.673Z,2.70
2022-09-23T15:03:57.544Z,2.60
2022-09-23T15:06:25.093Z,5.07
2022-09-23T15:08:52.898Z,2.53
2022-09-23T15:11:22.244Z,2.45
2022-09-23T15:13:50.926Z,2.65
2022-09-23T15:16:25.185Z,2.35
2022-09-23T15:18:55.970Z,4.28
2022-09-23T15:21:23.489Z,1.95
2022-09-23T15:23:51.851Z,2.72
2022-09-23T15:26:19.996Z,2.95
2022-09-23T15:28:48.020Z,2.45
2022-09-23T15:31:16.344Z,2.28
2022-09-23T15:33:44.802Z,2.53
2022-09-23T15:36:17.079Z,2.95
2022-09-23T15:38:44.772Z,3.63
2022-09-23T15:41:12.227Z,2.17
2022-09-23T15:43:40.390Z,2.67
2022-09-23T15:46:08.993Z,4.25
2022-09-23T15:48:38.675Z,6.72
2022-09-23T15:51:07.984Z,5.10
2022-09-23T15:53:37.969Z,2.60
2022-09-23T15:56:06.218Z,7.30
2022-09-23T15:58:33.790Z,3.28
2022-09-23T16:01:01.385Z,3.13
2022-09-23T16:03:29.244Z,2.50
2022-09-23T16:05:58.056Z,6.68
2022-09-23T16:08:25.780Z,4.57
2022-09-23T16:10:55.385Z,2.83
2022-09-23T16:13:22.979Z,3.63
2022-09-23T16:15:50.398Z,2.35
2022-09-23T16:18:17.977Z,2.85
2022-09-23T16:20:47.250Z,6.28
2022-09-23T16:23:33.867Z,2.72
2022-09-23T16:26:03.713Z,3.42
2022-09-23T16:28:31.098Z,7.68
2022-09-23T16:30:58.535Z,4.05
2022-09-23T16:33:27.371Z,4.70
2022-09-23T16:35:54.812Z,5.28
2022-09-23T16:38:22.175Z,3.55
2022-09-23T16:40:49.627Z,2.90
2022-09-23T16:43:19.597Z,4.38
2022-09-23T16:45:47.081Z,3.75
2022-09-23T16:48:14.444Z,3.97
2022-09-23T16:50:42.607Z,8.68
2022-09-23T16:53:10.005Z,3.35
2022-09-23T16:55:37.896Z,5.90
2022-09-23T16:58:05.280Z,4.70
2022-09-23T17:00:51.284Z,3.13
2022-09-23T17:03:36.304Z,4.65
2022-09-23T17:06:07.925Z,3.70
2022-09-23T17:08:35.628Z,2.95
2022-09-23T17:11:03.013Z,3.42
2022-09-23T17:13:31.087Z,3.05
2022-09-23T17:15:59.948Z,3.53
2022-09-23T17:18:27.732Z,5.38
2022-09-23T17:21:02.513Z,4.57
2022-09-23T17:23:31.484Z,5.65
2022-09-23T17:25:59.294Z,6.43
2022-09-23T17:28:26.769Z,4.85
2022-09-23T17:30:57.870Z,5.00
2022-09-23T17:33:26.722Z,5.07
2022-09-23T17:35:54.731Z,5.68
2022-09-23T17:38:25.662Z,5.43
2022-09-23T17:40:56.881Z,6.80
2022-09-23T17:43:24.959Z,9.00
2022-09-23T17:45:52.760Z,8.43
2022-09-23T17:48:21.461Z,10.50
2022-09-23T17:50:56.886Z,9.70
2022-09-23T17:53:24.679Z,9.63
2022-09-23T17:55:55.610Z,8.70
2022-09-23T17:58:24.946Z,9.45
2022-09-23T18:00:52.470Z,6.95
2022-09-23T18:03:20.286Z,8.05
2022-09-23T18:05:47.734Z,6.68
2022-09-23T18:08:16.547Z,6.40
2022-09-23T18:10:43.947Z,7.88
2022-09-23T18:13:11.385Z,8.35
2022-09-23T18:15:39.157Z,7.45
2022-09-23T18:18:06.851Z,9.55
2022-09-23T18:20:34.323Z,6.80
2022-09-23T18:23:01.702Z,7.43
2022-09-23T18:25:39.304Z,7.60
2022-09-23T18:28:07.102Z,10.13
2022-09-23T18:30:34.471Z,7.28
2022-09-23T18:33:03.302Z,10.60
2022-09-23T18:35:30.798Z,12.95
2022-09-23T18:37:58.166Z,13.57
2022-09-23T18:40:26.089Z,15.43
2022-09-23T18:42:54.845Z,9.68
2022-09-23T18:45:22.240Z,10.65
2022-09-23T18:48:09.277Z,12.18
2022-09-23T18:50:43.727Z,12.25
2022-09-23T18:53:11.249Z,13.90
2022-09-23T18:55:40.539Z,13.77
2022-09-23T18:58:10.510Z,14.60
2022-09-23T19:00:38.062Z,18.95
2022-09-23T19:03:05.622Z,16.38
2022-09-23T19:05:33.810Z,13.77
2022-09-23T19:08:01.195Z,14.30
2022-09-23T19:10:28.590Z,10.90
2022-09-23T19:12:55.928Z,9.88
2022-09-23T19:15:24.627Z,10.55
2022-09-23T19:17:52.990Z,9.15
2022-09-23T19:20:20.801Z,11.50
2022-09-23T19:22:48.363Z,6.57
2022-09-23T19:25:17.386Z,8.48
2022-09-23T19:27:44.727Z,7.63
2022-09-23T19:30:13.383Z,8.95
2022-09-23T19:32:44.833Z,6.63
2022-09-23T19:35:16.041Z,8.40
2022-09-23T19:37:46.013Z,6.40
2022-09-23T19:40:13.457Z,7.28
2022-09-23T19:42:41.075Z,8.15
2022-09-23T19:45:08.798Z,6.72
2022-09-23T19:47:36.853Z,9.73
2022-09-23T19:50:07.231Z,7.70
2022-09-23T19:52:34.631Z,6.93
2022-09-23T19:55:01.983Z,7.20
2022-09-23T19:57:33.347Z,7.30
2022-09-23T20:00:00.808Z,5.95
2022-09-23T20:02:28.233Z,6.63
2022-09-23T20:04:55.685Z,7.47
2022-09-23T20:07:24.454Z,8.07
2022-09-23T20:09:51.793Z,6.97
2022-09-23T20:12:19.196Z,7.38
2022-09-23T20:14:46.535Z,8.20
2022-09-23T20:17:14.076Z,8.80
2022-09-23T20:19:41.463Z,7.88
2022-09-23T20:22:32.950Z,7.10
2022-09-23T20:25:02.520Z,9.35
2022-09-23T20:27:31.143Z,8.32
2022-09-23T20:29:58.479Z,7.30
2022-09-23T20:32:26.471Z,7.50
2022-09-23T20:34:54.029Z,6.97
2022-09-23T20:37:23.394Z,5.47
2022-09-23T20:39:51.502Z,7.63
2022-09-23T20:42:21.780Z,7.38
2022-09-23T20:44:49.176Z,6.93
2022-09-23T20:47:17.916Z,6.30
2022-09-23T20:49:46.173Z,6.70
2022-09-23T20:52:14.617Z,7.32
2022-09-23T20:54:42.579Z,7.93
2022-09-23T20:57:11.052Z,7.15
2022-09-23T20:59:40.094Z,6.55
2022-09-23T21:02:08.212Z,5.88
2022-09-23T21:04:35.813Z,5.80
2022-09-23T21:07:03.297Z,7.15
2022-09-23T21:09:31.872Z,5.45
2022-09-23T21:11:59.225Z,5.88
2022-09-23T21:14:26.558Z,5.97
2022-09-23T21:16:55.614Z,8.88
2022-09-23T21:19:24.343Z,6.55
2022-09-23T21:21:51.730Z,5.35
2022-09-23T21:25:29.609Z,6.82
2022-09-23T21:27:07.364Z,6.25
2022-09-23T21:29:34.764Z,7.90
2022-09-23T21:32:03.711Z,6.55
2022-09-23T21:34:32.732Z,6.13
2022-09-23T21:37:00.209Z,6.22
2022-09-23T21:39:27.556Z,7.35
2022-09-23T21:41:54.924Z,6.82
2022-09-23T21:44:22.278Z,7.30
2022-09-23T21:46:49.727Z,6.72
2022-09-23T21:49:18.505Z,7.88
2022-09-23T21:51:45.931Z,10.45
2022-09-23T21:54:15.488Z,8.63
2022-09-23T21:56:43.364Z,8.52
2022-09-23T21:59:11.210Z,9.40
2022-09-23T22:01:40.073Z,7.65
2022-09-23T22:04:10.063Z,6.25
2022-09-23T22:06:40.335Z,6.43
2022-09-23T22:09:09.137Z,6.60
2022-09-23T22:11:54.489Z,7.95
2022-09-23T22:14:23.276Z,7.38
2022-09-23T22:16:50.602Z,5.88
2022-09-23T22:19:17.950Z,6.47
2022-09-23T22:21:47.298Z,6.30
2022-09-23T22:24:14.836Z,8.25
2022-09-23T22:26:43.155Z,5.60
2022-09-23T22:29:29.071Z,7.10
2022-09-23T22:32:14.081Z,6.47
2022-09-23T22:34:50.541Z,7.25
2022-09-23T22:37:20.902Z,6.03
2022-09-23T22:39:48.318Z,6.75
2022-09-23T22:42:16.060Z,5.85
2022-09-23T22:44:43.415Z,5.88
2022-09-23T22:47:11.318Z,5.00
2022-09-23T22:49:38.715Z,6.05
2022-09-23T22:52:08.366Z,5.72
2022-09-23T22:54:37.090Z,6.00
2022-09-23T22:57:05.134Z,6.03
2022-09-23T22:59:32.502Z,7.65
2022-09-23T23:02:02.354Z,7.80
2022-09-23T23:04:30.328Z,6.35
2022-09-23T23:06:58.446Z,5.88
2022-09-23T23:09:25.915Z,6.57
2022-09-23T23:11:54.619Z,6.28
2022-09-23T23:14:21.968Z,5.75
2022-09-23T23:16:49.524Z,5.57
2022-09-23T23:19:19.188Z,5.35
2022-09-23T23:21:46.672Z,6.13
2022-09-23T23:24:15.148Z,6.18
2022-09-23T23:26:42.639Z,5.47
2022-09-23T23:29:12.235Z,6.88
2022-09-23T23:31:39.849Z,5.43
2022-09-23T23:34:08.244Z,6.80
2022-09-23T23:36:35.702Z,7.43
2022-09-23T23:39:03.112Z,5.28
2022-09-23T23:41:31.032Z,7.85
2022-09-23T23:43:59.195Z,5.82
2022-09-23T23:46:29.035Z,7.22
2022-09-23T23:48:57.230Z,7.63
2022-09-23T23:51:26.240Z,7.05
2022-09-23T23:53:54.180Z,5.45
2022-09-23T23:56:22.580Z,8.90
2022-09-23T23:58:53.925Z,9.02
